Saint-Hyacinthe, Canada
Current Conditions -  °F | °C
As of 6:00 AM on Wednesday 22 Oct 2014 (Local Time) from CYHU Reporting Station
Scattered Clouds Scattered Clouds  
Wind Chill: 36°   Ceiling: Unl
Heat Index: 43°   Visibility: 9mi
Dew Point: 34°   Wind: 14mph
Humidity: 70%   Direction: 30°NNE
Pressure: 30.22"   Gusts: NA
Location:  45.62°N, 72.95°W
Report Text: CYHU 221000Z AUTO 03012KT 9SM SCT075 SCT098 06/01 A3022 RMK SLP233
Loading
Personal Weather Stations






























Interactive Weather Map
Tropical Storm Tracking
New forecast layout! Learn more

10-Day Weather Forecast

Advertisements
Track Severe Weather on mobile